Time;durP1;ratioP1;P1;durP2;ratioP2;P2;SDS_P1;SDS_P2;PMS_P1;PMS_P2;Temp;Humidity;BMP_temperature;BMP_pressure;BME280_temperature;BME280_humidity;BME280_pressure;Samples;Min_cycle;Max_cycle;Signal;HPM_P1;HPM_P2
2022/08/04 00:02:46;;;;;;;2.67;2.40;;;;;;;22.53;44.86;98850.94;4469735;32;20092;-70
2022/08/04 00:05:25;;;;;;;3.17;2.37;;;;;;;22.50;45.03;98846.84;4472431;32;20092;-70
2022/08/04 00:08:04;;;;;;;2.40;2.20;;;;;;;22.49;44.96;98852.38;4485608;31;20081;-71
2022/08/04 00:10:35;;;;;;;5.53;2.40;;;;;;;22.50;44.88;98857.50;4485524;31;20126;-70
2022/08/04 00:13:04;;;;;;;4.05;2.30;;;;;;;22.52;44.81;98849.28;4485511;31;20080;-70
2022/08/04 00:15:32;;;;;;;2.78;2.40;;;;;;;22.58;44.36;98848.44;4485252;31;20097;-70
2022/08/04 00:18:03;;;;;;;3.12;2.33;;;;;;;22.61;44.14;98857.87;4485382;31;20104;-70
2022/08/04 00:20:37;;;;;;;2.30;2.10;;;;;;;22.60;43.80;98857.03;4485600;31;20449;-70
2022/08/04 00:23:06;;;;;;;4.43;2.20;;;;;;;22.59;43.44;98846.56;4485427;32;20164;-70
2022/08/04 00:25:33;;;;;;;5.10;2.22;;;;;;;22.55;43.71;98848.06;4483791;32;20081;-70
2022/08/04 00:28:03;;;;;;;3.12;2.62;;;;;;;22.47;43.60;98852.59;4483775;32;20113;-70
2022/08/04 00:30:31;;;;;;;3.78;2.40;;;;;;;22.44;43.90;98853.03;4484982;32;20092;-70
2022/08/04 00:32:59;;;;;;;3.28;2.42;;;;;;;22.45;44.31;98844.00;4485329;31;20092;-70
2022/08/04 00:35:27;;;;;;;3.40;2.72;;;;;;;22.42;45.21;98855.09;4485186;31;20417;-70
2022/08/04 00:37:54;;;;;;;2.97;2.62;;;;;;;22.37;46.02;98854.91;4483883;32;20137;-70
2022/08/04 00:40:24;;;;;;;5.15;2.62;;;;;;;22.31;46.75;98855.75;4485297;31;20088;-70
2022/08/04 00:43:17;;;;;;;3.90;2.95;;;;;;;22.24;47.75;98854.91;4483643;32;20096;-70
2022/08/04 00:45:54;;;;;;;3.35;2.90;;;;;;;22.22;48.30;98865.00;4483925;32;20118;-70
2022/08/04 00:48:51;;;;;;;3.20;2.67;;;;;;;22.19;48.68;98862.75;4485079;32;20126;-70
2022/08/04 00:51:35;;;;;;;3.83;2.90;;;;;;;22.12;49.17;98860.06;4484897;32;20150;-70
2022/08/04 00:54:12;;;;;;;3.50;2.80;;;;;;;22.11;49.65;98863.78;4485167;31;20129;-71
2022/08/04 00:56:39;;;;;;;4.10;2.83;;;;;;;22.02;50.38;98863.19;4485027;31;20440;-70
2022/08/04 00:59:34;;;;;;;5.03;3.17;;;;;;;22.06;50.42;98867.09;4484733;31;20080;-70
2022/08/04 01:02:15;;;;;;;4.65;3.37;;;;;;;22.01;50.86;98869.56;4483546;31;20152;-70
2022/08/04 01:04:49;;;;;;;8.48;3.33;;;;;;;22.05;51.09;98864.63;4485013;31;20080;-70
2022/08/04 01:07:41;;;;;;;7.45;2.85;;;;;;;22.02;51.43;98873.87;4469154;32;20104;-70
2022/08/04 01:10:16;;;;;;;5.22;3.15;;;;;;;22.03;51.77;98867.50;4469489;32;20097;-70
2022/08/04 01:13:11;;;;;;;4.32;3.12;;;;;;;22.09;51.98;98872.00;4468149;32;20491;-70
2022/08/04 01:15:47;;;;;;;3.75;3.10;;;;;;;22.07;52.42;98874.03;4467805;32;20164;-70
2022/08/04 01:18:26;;;;;;;4.62;3.53;;;;;;;22.07;52.67;98870.56;4467976;32;20085;-70
2022/08/04 01:21:27;;;;;;;3.53;3.12;;;;;;;22.06;52.91;98861.75;4469054;32;20352;-70
2022/08/04 01:24:04;;;;;;;3.85;3.40;;;;;;;22.03;53.23;98867.50;4469071;32;20101;-70
2022/08/04 01:26:50;;;;;;;3.50;3.20;;;;;;;21.98;53.56;98869.97;4468855;32;20076;-70
2022/08/04 01:29:26;;;;;;;3.80;3.17;;;;;;;22.00;53.83;98862.59;4467382;32;20416;-70
2022/08/04 01:32:22;;;;;;;5.70;3.03;;;;;;;21.92;54.14;98860.13;4469038;32;20206;-70
2022/08/04 01:35:04;;;;;;;5.37;3.60;;;;;;;21.91;54.49;98866.53;4469011;32;20154;-70
2022/08/04 01:38:00;;;;;;;3.85;3.45;;;;;;;21.89;54.63;98863.22;4478811;32;20088;-70
2022/08/04 01:40:45;;;;;;;12.23;3.90;;;;;;;21.90;54.82;98868.34;4484612;31;20149;-70
2022/08/04 01:43:13;;;;;;;6.78;3.28;;;;;;;21.82;55.21;98870.41;4484175;31;20146;-70
2022/08/04 01:45:40;;;;;;;6.28;2.87;;;;;;;21.86;55.24;98871.63;4484387;31;20093;-70
2022/08/04 01:48:09;;;;;;;4.72;3.08;;;;;;;21.73;55.51;98867.97;4483091;32;20100;-70
2022/08/04 01:50:37;;;;;;;4.60;3.50;;;;;;;21.67;55.75;98874.13;4483053;32;20080;-70
2022/08/04 01:53:04;;;;;;;3.90;2.83;;;;;;;21.72;55.80;98874.31;4483054;32;20095;-70
2022/08/04 01:55:32;;;;;;;3.58;2.92;;;;;;;21.72;55.69;98871.66;4482987;32;20116;-70
2022/08/04 01:58:20;;;;;;;4.87;3.03;;;;;;;21.73;55.71;98861.81;4483218;32;20088;-70
2022/08/04 02:01:01;;;;;;;4.25;3.55;;;;;;;21.62;56.08;98873.94;4482646;32;20092;-70
2022/08/04 02:03:33;;;;;;;4.12;3.28;;;;;;;21.53;56.29;98868.00;4484037;31;20095;-70
2022/08/04 02:06:42;;;;;;;3.72;3.12;;;;;;;21.44;56.76;98867.34;4483981;31;20101;-70
2022/08/04 02:09:38;;;;;;;4.15;3.08;;;;;;;21.39;56.86;98867.16;4484338;31;20112;-70
2022/08/04 02:12:31;;;;;;;4.07;3.08;;;;;;;21.39;56.90;98869.81;4482694;32;20159;-70
2022/08/04 02:15:03;;;;;;;3.50;3.20;;;;;;;21.26;57.32;98867.13;4485016;32;20512;-70
2022/08/04 02:17:43;;;;;;;4.22;2.90;;;;;;;21.27;57.21;98864.28;4484698;32;20101;-70
2022/08/04 02:20:36;;;;;;;3.53;2.95;;;;;;;21.23;57.54;98863.03;4484879;32;20097;-70
2022/08/04 02:23:06;;;;;;;3.90;2.70;;;;;;;21.18;57.52;98859.31;4486185;31;20072;-70
2022/08/04 02:25:39;;;;;;;12.52;3.25;;;;;;;21.25;57.40;98860.16;4486121;31;20595;-70
2022/08/04 02:28:28;;;;;;;3.83;3.20;;;;;;;21.24;57.38;98859.34;4485915;31;20506;-70
2022/08/04 02:31:20;;;;;;;5.30;3.03;;;;;;;21.20;57.46;98857.31;4485875;32;20147;-70
2022/08/04 02:34:04;;;;;;;4.15;3.00;;;;;;;21.21;57.27;98858.91;4484888;32;20423;-70
2022/08/04 02:36:37;;;;;;;3.42;3.00;;;;;;;21.14;57.43;98858.13;4486270;32;20161;-70
2022/08/04 02:39:07;;;;;;;4.15;3.22;;;;;;;21.20;57.28;98863.44;4484527;32;20092;-70
2022/08/04 02:41:35;;;;;;;4.05;3.05;;;;;;;21.13;57.35;98861.78;4486072;31;20072;-70
2022/08/04 02:44:05;;;;;;;3.08;2.78;;;;;;;21.11;57.39;98850.53;4485817;31;20096;-70
2022/08/04 02:46:34;;;;;;;6.20;3.50;;;;;;;21.09;57.23;98856.88;4486104;31;20084;-70
2022/08/04 02:49:07;;;;;;;3.12;2.83;;;;;;;21.13;56.91;98859.94;4485943;31;20123;-70
2022/08/04 02:51:37;;;;;;;3.93;2.97;;;;;;;21.17;56.97;98857.72;4485883;31;20080;-70
2022/08/04 02:54:06;;;;;;;3.28;2.72;;;;;;;21.15;56.96;98849.06;4485875;31;20096;-70
2022/08/04 02:56:35;;;;;;;3.33;2.70;;;;;;;21.13;56.97;98851.13;4485806;31;20122;-70
2022/08/04 02:59:07;;;;;;;3.33;2.83;;;;;;;21.14;56.78;98853.59;4485478;31;20097;-70
2022/08/04 03:01:34;;;;;;;3.42;2.75;;;;;;;21.08;56.88;98849.91;4485733;31;20425;-70
2022/08/04 03:04:16;;;;;;;3.08;2.78;;;;;;;21.05;56.97;98850.31;4485742;31;20114;-70
2022/08/04 03:07:24;;;;;;;9.93;2.90;;;;;;;21.01;57.03;98853.56;4485942;31;20096;-70
2022/08/04 03:10:09;;;;;;;5.82;2.75;;;;;;;21.03;56.99;98847.03;4484417;32;20089;-70
2022/08/04 03:12:42;;;;;;;4.80;2.78;;;;;;;21.00;57.04;98852.75;4485639;31;20497;-70
2022/08/04 03:15:24;;;;;;;6.57;2.92;;;;;;;20.94;57.17;98858.91;4485945;31;20076;-70
2022/08/04 03:18:16;;;;;;;2.87;2.58;;;;;;;20.96;57.11;98850.72;4485609;32;20198;-70
2022/08/04 03:21:24;;;;;;;3.40;2.70;;;;;;;20.94;57.07;98858.91;4485783;31;20529;-70
2022/08/04 03:24:31;;;;;;;2.83;2.50;;;;;;;20.97;57.07;98857.66;4451808;32;20093;-70
2022/08/04 03:27:00;;;;;;;6.35;2.72;;;;;;;20.94;56.89;98858.91;4438800;32;20107;-70
2022/08/04 03:29:54;;;;;;;3.45;2.67;;;;;;;20.93;56.85;98857.25;4451400;32;20109;-70
2022/08/04 03:32:24;;;;;;;3.95;2.62;;;;;;;20.89;57.09;98858.66;4451887;32;20680;-70
2022/08/04 03:35:00;;;;;;;5.60;2.65;;;;;;;20.95;56.96;98860.53;4451676;32;20101;-70
2022/08/04 03:37:48;;;;;;;3.37;2.30;;;;;;;20.98;56.83;98861.97;4451845;32;20093;-70
2022/08/04 03:40:49;;;;;;;5.10;2.83;;;;;;;20.90;57.07;98863.78;4452171;32;20147;-70
2022/08/04 03:43:39;;;;;;;5.15;2.30;;;;;;;20.94;56.78;98864.22;4451714;32;20220;-70
2022/08/04 03:46:25;;;;;;;6.05;2.72;;;;;;;20.93;56.88;98862.59;4420972;32;20187;-70
2022/08/04 03:49:20;;;;;;;8.02;2.75;;;;;;;20.95;56.89;98857.06;4420766;32;20614;-70
2022/08/04 03:55:17;;;;;;;2.92;2.40;;;;;;;21.00;56.45;98871.41;4430172;32;20093;-70
2022/08/04 03:58:03;;;;;;;13.18;2.50;;;;;;;21.17;55.81;98868.38;4423648;32;20109;-70
2022/08/04 04:00:37;;;;;;;8.70;2.40;;;;;;;21.22;55.67;98866.72;4436004;32;20136;-70
2022/08/04 04:03:26;;;;;;;8.95;3.30;;;;;;;21.29;55.39;98869.41;4436177;32;20165;-70
2022/08/04 04:06:03;;;;;;;3.47;2.62;;;;;;;21.38;54.99;98870.03;4436274;32;20156;-70
2022/08/04 04:08:46;;;;;;;4.97;2.50;;;;;;;21.45;54.76;98871.66;4436223;32;20101;-70
2022/08/04 04:11:57;;;;;;;2.60;2.28;;;;;;;21.50;54.59;98872.91;4436517;32;20410;-70
2022/08/04 04:15:06;;;;;;;3.15;2.80;;;;;;;21.56;54.22;98877.41;4390314;32;20118;-70
2022/08/04 04:17:48;;;;;;;4.40;2.40;;;;;;;21.67;54.18;98876.00;4390513;32;20094;-70
2022/08/04 04:20:48;;;;;;;6.62;2.70;;;;;;;21.68;54.13;98875.78;4390560;32;20103;-70
2022/08/04 04:23:30;;;;;;;3.33;2.28;;;;;;;21.83;53.92;98870.19;4412080;32;20081;-70
2022/08/04 04:26:11;;;;;;;;;;;;;;;21.91;53.18;98879.84;4436681;32;20102;-70
2022/08/04 04:29:12;;;;;;;6.07;2.70;;;;;;;21.99;53.36;98871.63;4436092;32;19984;-70
2022/08/04 04:31:57;;;;;;;2.87;2.10;;;;;;;21.90;53.09;98875.53;4436125;32;20106;-70
2022/08/04 04:34:42;;;;;;;5.62;2.50;;;;;;;21.87;53.04;98878.63;4436092;32;20109;-70
2022/08/04 04:37:29;;;;;;;4.43;2.30;;;;;;;21.83;53.15;98877.38;4435920;32;20876;-70
2022/08/04 04:40:11;;;;;;;7.07;2.47;;;;;;;21.92;53.20;98879.66;4435994;32;20540;-70
2022/08/04 04:43:16;;;;;;;2.70;2.08;;;;;;;22.01;52.59;98882.88;4435831;32;20147;-70
2022/08/04 04:45:54;;;;;;;4.18;2.62;;;;;;;22.22;52.33;98884.47;4436101;32;20097;-70
2022/08/04 04:48:33;;;;;;;3.00;2.45;;;;;;;22.39;51.83;98884.88;4423295;32;20163;-70
2022/08/04 04:51:19;;;;;;;3.83;2.30;;;;;;;22.59;51.24;98881.28;4478615;32;20120;-70
2022/08/04 04:53:56;;;;;;;3.45;2.42;;;;;;;22.70;50.76;98883.31;4485109;31;20115;-70
2022/08/04 04:56:28;;;;;;;4.87;2.40;;;;;;;22.77;50.56;98886.78;4485109;31;20073;-70
2022/08/04 04:58:56;;;;;;;9.68;2.20;;;;;;;22.92;50.13;98888.31;4483618;32;20446;-70
2022/08/04 05:01:45;;;;;;;5.43;2.58;;;;;;;22.89;49.88;98886.06;4483909;32;20476;-70
2022/08/04 05:04:55;;;;;;;3.45;2.30;;;;;;;22.61;50.46;98892.59;4483570;32;20115;-70
2022/08/04 05:07:43;;;;;;;16.73;3.05;;;;;;;22.66;50.47;98896.28;4405889;32;20164;-70
2022/08/04 05:10:22;;;;;;;3.30;2.25;;;;;;;22.86;49.94;98892.66;4419986;32;20128;-70
2022/08/04 05:13:13;;;;;;;3.10;2.35;;;;;;;22.98;49.82;98890.97;4417160;32;20781;-70
2022/08/04 05:16:09;;;;;;;5.20;2.42;;;;;;;23.11;49.34;98897.28;4417953;32;20666;-70
2022/08/04 05:18:38;;;;;;;4.72;2.20;;;;;;;23.21;48.67;98894.97;4407740;32;20133;-70
2022/08/04 05:21:32;;;;;;;3.05;2.15;;;;;;;23.32;48.47;98896.94;4406553;32;20160;-70
2022/08/04 05:24:02;;;;;;;3.25;2.28;;;;;;;23.43;47.91;98900.75;4405100;32;20541;-70
2022/08/04 05:26:32;;;;;;;4.50;2.00;;;;;;;23.52;47.90;98904.78;4406559;32;20108;-70
2022/08/04 05:29:04;;;;;;;4.30;2.40;;;;;;;23.51;47.81;98910.34;4419226;32;20125;-70
2022/08/04 05:31:35;;;;;;;3.03;2.22;;;;;;;23.66;47.37;98897.47;4418456;32;20448;-70
2022/08/04 05:34:08;;;;;;;6.35;2.10;;;;;;;23.80;47.13;98908.06;4406226;32;20152;-70
2022/08/04 05:36:42;;;;;;;2.50;1.90;;;;;;;23.87;46.53;98909.66;4419006;32;20474;-71
2022/08/04 05:39:11;;;;;;;;;;;;;;;23.98;46.39;98909.97;4407514;32;20082;-70
2022/08/04 05:41:40;;;;;;;9.60;2.67;;;;;;;24.07;46.01;98912.16;4404580;32;20188;-70
2022/08/04 05:44:13;;;;;;;5.25;2.10;;;;;;;24.08;45.96;98905.75;4448058;32;20404;-70
2022/08/04 05:46:42;;;;;;;2.35;2.00;;;;;;;24.06;45.62;98915.06;4482254;32;20139;-70
2022/08/04 05:49:09;;;;;;;5.37;2.00;;;;;;;24.20;45.66;98907.72;4486870;31;20107;-70
2022/08/04 05:51:43;;;;;;;5.12;2.10;;;;;;;24.29;45.41;98910.91;4486475;32;20562;-70
2022/08/04 05:54:12;;;;;;;7.72;2.70;;;;;;;24.25;45.10;98919.41;4488657;31;20398;-70
2022/08/04 05:56:40;;;;;;;7.15;2.22;;;;;;;24.24;44.92;98920.41;4488858;31;20088;-70
2022/08/04 05:59:09;;;;;;;15.38;2.50;;;;;;;24.33;44.76;98925.47;4486458;32;20123;-70
2022/08/04 06:01:38;;;;;;;17.37;2.67;;;;;;;24.34;45.12;98924.44;4484096;32;20092;-70
2022/08/04 06:04:31;;;;;;;5.45;2.15;;;;;;;24.55;44.94;98917.81;4473472;32;20108;-70
2022/08/04 06:06:58;;;;;;;7.30;2.25;;;;;;;24.64;44.84;98916.50;4473830;32;20553;-70
2022/08/04 06:09:25;;;;;;;6.25;3.70;;;;;;;24.82;44.22;98921.00;4485769;32;20157;-70
2022/08/04 06:11:56;;;;;;;6.15;2.30;;;;;;;24.90;43.47;98918.00;4487626;32;20158;-70
2022/08/04 06:14:42;;;;;;;4.20;2.30;;;;;;;24.85;43.99;98925.91;4486787;32;20100;-70
2022/08/04 06:17:13;;;;;;;6.00;2.20;;;;;;;24.81;43.60;98922.03;4489071;31;20076;-70
2022/08/04 06:20:01;;;;;;;6.30;2.42;;;;;;;24.79;43.06;98921.47;4487743;32;20080;-70
2022/08/04 06:22:52;;;;;;;4.72;2.22;;;;;;;24.73;43.19;98917.00;4488005;32;20472;-70
2022/08/04 06:25:23;;;;;;;6.00;2.00;;;;;;;25.17;43.18;98922.19;4487587;32;20126;-70
2022/08/04 06:27:50;;;;;;;4.82;2.42;;;;;;;25.43;42.81;98921.78;4486750;32;20114;-70
2022/08/04 06:30:18;;;;;;;6.68;2.28;;;;;;;25.52;42.19;98918.78;4487032;32;20118;-70
2022/08/04 06:32:48;;;;;;;19.62;2.90;;;;;;;25.45;42.04;98930.44;4488174;32;20104;-70
2022/08/04 06:35:19;;;;;;;5.15;2.22;;;;;;;25.36;42.03;98925.63;4488332;31;20100;-70
2022/08/04 06:37:46;;;;;;;3.62;2.03;;;;;;;25.47;42.20;98924.84;4482090;32;20163;-71
2022/08/04 06:40:16;;;;;;;5.12;2.42;;;;;;;25.71;41.82;98928.38;4488048;31;20457;-71
2022/08/04 06:43:04;;;;;;;6.57;2.20;;;;;;;25.68;41.15;98929.66;4477983;32;20092;-70
2022/08/04 06:45:33;;;;;;;6.25;2.33;;;;;;;25.59;41.79;98922.19;4486739;32;20108;-70
2022/08/04 06:48:03;;;;;;;2.62;2.12;;;;;;;25.61;41.56;98918.22;4488252;32;20126;-70
2022/08/04 06:50:31;;;;;;;9.02;2.30;;;;;;;25.52;42.02;98916.13;4486457;32;20100;-70
2022/08/04 06:53:19;;;;;;;4.28;2.08;;;;;;;25.79;41.55;98922.66;4487192;32;20092;-70
2022/08/04 06:55:47;;;;;;;21.95;3.03;;;;;;;25.76;41.66;98927.69;4486550;31;20446;-70
2022/08/04 06:58:15;;;;;;;4.22;2.40;;;;;;;26.00;41.69;98928.53;4486437;32;20516;-70
2022/08/04 07:00:44;;;;;;;3.45;2.45;;;;;;;26.11;40.92;98924.22;4482366;32;20088;-70
2022/08/04 07:03:12;;;;;;;12.23;2.70;;;;;;;26.21;41.28;98921.75;4483768;32;20101;-70
2022/08/04 07:05:40;;;;;;;3.62;2.20;;;;;;;26.26;41.11;98923.72;4484040;32;20127;-70
2022/08/04 07:08:10;;;;;;;4.32;2.50;;;;;;;26.41;40.36;98928.63;4484283;32;20104;-70
2022/08/04 07:10:37;;;;;;;7.40;2.25;;;;;;;26.35;40.58;98931.19;4484496;32;20093;-70
2022/08/04 07:13:06;;;;;;;6.00;2.20;;;;;;;26.29;40.90;98934.81;4475311;32;20177;-70
2022/08/04 07:15:34;;;;;;;6.65;2.35;;;;;;;26.23;40.97;98937.62;4480581;32;20166;-70
2022/08/04 07:18:03;;;;;;;4.47;2.03;;;;;;;26.43;41.60;98931.88;4481362;32;20104;-70
2022/08/04 07:20:31;;;;;;;4.07;2.15;;;;;;;26.53;39.95;98918.66;4483654;32;20100;-70
2022/08/04 07:23:03;;;;;;;2.97;2.28;;;;;;;26.42;40.52;98927.53;4478314;32;20089;-70
2022/08/04 07:25:30;;;;;;;4.68;2.08;;;;;;;26.58;40.17;98926.81;4484466;31;20153;-70
2022/08/04 07:28:19;;;;;;;4.80;2.05;;;;;;;26.85;40.01;98927.09;4485413;31;20080;-70
2022/08/04 07:30:47;;;;;;;5.07;2.17;;;;;;;26.98;39.20;98922.47;4485654;31;20068;-70
2022/08/04 07:33:18;;;;;;;3.05;1.87;;;;;;;27.12;38.63;98921.16;4485158;31;20088;-70
2022/08/04 07:35:49;;;;;;;7.00;2.10;;;;;;;27.22;38.60;98923.19;4485079;31;20482;-70
2022/08/04 07:38:41;;;;;;;11.93;2.20;;;;;;;27.41;38.35;98919.25;4484309;32;20100;-70
2022/08/04 07:41:22;;;;;;;3.67;1.92;;;;;;;27.40;38.09;98922.19;4485216;31;20085;-70
2022/08/04 07:44:05;;;;;;;3.80;2.10;;;;;;;27.44;38.23;98926.81;4484493;31;20104;-70
2022/08/04 07:46:33;;;;;;;5.05;1.80;;;;;;;27.44;37.54;98924.13;4469642;32;20131;-70
2022/08/04 07:49:02;;;;;;;8.50;2.92;;;;;;;27.52;37.69;98914.84;4481059;32;20092;-70
2022/08/04 07:51:29;;;;;;;5.18;2.10;;;;;;;27.49;38.01;98914.53;4485110;31;20089;-71
2022/08/04 07:53:59;;;;;;;6.25;2.12;;;;;;;27.65;36.98;98913.72;4470830;32;20148;-70
2022/08/04 07:56:26;;;;;;;2.97;2.40;;;;;;;27.60;37.27;98913.63;4483851;32;20122;-70
2022/08/04 07:58:54;;;;;;;3.92;2.47;;;;;;;27.71;36.81;98918.09;4483326;32;20103;-70
2022/08/04 08:01:23;;;;;;;3.37;2.40;;;;;;;27.88;36.73;98914.59;4482808;32;20156;-70
2022/08/04 08:03:53;;;;;;;26.27;2.62;;;;;;;27.76;37.21;98915.47;4483677;32;20116;-70
2022/08/04 08:06:21;;;;;;;7.20;2.42;;;;;;;27.97;36.96;98910.44;4481287;32;20141;-70
2022/08/04 08:09:09;;;;;;;2.12;1.92;;;;;;;27.94;36.65;98919.78;4485561;31;20426;-70
2022/08/04 08:11:45;;;;;;;7.12;2.15;;;;;;;28.13;36.66;98911.44;4484214;31;20568;-71
2022/08/04 08:14:34;;;;;;;3.50;1.92;;;;;;;27.91;37.26;98909.50;4485069;32;20143;-70
2022/08/04 08:17:02;;;;;;;5.95;3.25;;;;;;;28.15;37.25;98912.84;4484775;31;20108;-71
2022/08/04 08:19:30;;;;;;;5.87;2.35;;;;;;;28.22;36.58;98911.84;4483498;31;20127;-70
2022/08/04 08:21:58;;;;;;;2.83;2.17;;;;;;;28.45;36.46;98922.41;4484074;31;20123;-70
2022/08/04 08:24:32;;;;;;;2.70;2.30;;;;;;;28.42;36.04;98920.19;4478564;31;20482;-70
2022/08/04 08:27:03;;;;;;;5.43;2.40;;;;;;;28.30;36.23;98922.19;4483078;32;20126;-70
2022/08/04 08:29:32;;;;;;;4.40;2.12;;;;;;;28.46;36.47;98926.72;4468739;32;20133;-70
2022/08/04 08:32:01;;;;;;;4.25;2.30;;;;;;;28.69;35.42;98916.75;4484304;32;20096;-70
2022/08/04 08:34:35;;;;;;;3.08;2.03;;;;;;;28.67;35.57;98913.50;4484540;31;20088;-70
2022/08/04 08:37:12;;;;;;;5.43;2.20;;;;;;;28.60;35.92;98923.66;4475091;32;20439;-71
2022/08/04 08:39:45;;;;;;;2.20;1.90;;;;;;;28.64;35.75;98916.69;4480734;32;20163;-70
2022/08/04 08:42:27;;;;;;;8.32;2.40;;;;;;;28.78;36.45;98915.25;4483364;32;20157;-70
2022/08/04 08:45:20;;;;;;;3.35;1.90;;;;;;;29.07;36.17;98923.09;4482529;32;20650;-71
2022/08/04 08:48:06;;;;;;;2.75;2.17;;;;;;;29.34;36.28;98920.41;4483487;32;20141;-70
2022/08/04 08:51:30;;;;;;;4.90;2.15;;;;;;;29.54;34.36;98917.06;4475917;32;20179;-71
2022/08/04 08:54:16;;;;;;;8.35;2.45;;;;;;;29.56;34.81;98923.00;4412740;32;20136;-71
2022/08/04 08:57:14;;;;;;;2.67;2.20;;;;;;;29.60;33.71;98920.63;4422834;32;20109;-70
2022/08/04 09:00:15;;;;;;;3.08;2.25;;;;;;;29.37;34.21;98928.00;4435384;32;20607;-71
2022/08/04 09:03:20;;;;;;;4.65;2.47;;;;;;;29.03;33.81;98925.47;4419594;32;20105;-70
2022/08/04 09:05:57;;;;;;;6.35;2.30;;;;;;;29.35;33.88;98926.63;4434574;32;20162;-71
2022/08/04 09:08:56;;;;;;;6.37;2.20;;;;;;;29.53;34.78;98926.22;4435060;32;20101;-70
2022/08/04 09:11:27;;;;;;;3.87;2.30;;;;;;;29.51;35.19;98922.19;4374792;32;20196;-70
2022/08/04 09:13:58;;;;;;;4.47;2.22;;;;;;;29.99;33.51;98933.87;4367960;32;20448;-71
2022/08/04 09:16:40;;;;;;;7.78;2.45;;;;;;;29.71;33.65;98929.62;4361772;32;20198;-71
2022/08/04 09:19:22;;;;;;;6.93;2.25;;;;;;;29.83;34.62;98930.25;4347362;32;20119;-71
2022/08/04 09:22:07;;;;;;;3.08;2.40;;;;;;;29.91;32.72;98921.66;4359534;32;20146;-71
2022/08/04 09:24:57;;;;;;;13.98;2.47;;;;;;;29.61;34.16;98924.13;4358925;32;20166;-70
2022/08/04 09:27:27;;;;;;;3.75;2.50;;;;;;;30.01;33.71;98928.19;4372845;32;20110;-71
2022/08/04 09:30:05;;;;;;;6.87;2.28;;;;;;;29.93;32.64;98923.31;4398140;32;20531;-70
2022/08/04 09:33:02;;;;;;;5.40;2.67;;;;;;;29.93;33.42;98923.31;4398507;32;20113;-70
2022/08/04 09:35:41;;;;;;;2.40;2.20;;;;;;;29.93;33.47;98920.59;4352771;32;20761;-70
2022/08/04 09:38:28;;;;;;;3.45;2.10;;;;;;;30.00;33.34;98924.69;4351362;32;20141;-70
2022/08/04 09:41:02;;;;;;;2.67;2.10;;;;;;;29.74;34.24;98923.69;4344282;33;20111;-71
2022/08/04 09:43:42;;;;;;;2.50;1.83;;;;;;;30.00;32.79;98918.50;4335680;33;20162;-71
2022/08/04 09:46:36;;;;;;;9.05;2.90;;;;;;;30.29;33.35;98924.31;4351896;32;20091;-71
2022/08/04 09:49:18;;;;;;;2.95;2.00;;;;;;;30.45;32.16;98917.13;4405546;32;20093;-71
2022/08/04 09:51:52;;;;;;;5.05;2.40;;;;;;;30.35;33.13;98909.75;4419254;32;20090;-72
2022/08/04 09:54:47;;;;;;;3.70;2.22;;;;;;;30.96;33.71;98903.75;4415952;32;20372;-71
2022/08/04 09:57:28;;;;;;;6.07;2.30;;;;;;;31.16;31.64;98901.34;4418414;32;20114;-71
2022/08/04 10:00:05;;;;;;;4.82;3.53;;;;;;;31.16;31.17;98898.63;4405843;32;20724;-71
2022/08/04 10:02:50;;;;;;;6.15;2.25;;;;;;;31.02;31.15;98893.75;4413382;32;20126;-71
2022/08/04 10:05:21;;;;;;;5.10;2.28;;;;;;;31.13;31.44;98886.47;4395835;32;20129;-71
2022/08/04 10:08:03;;;;;;;2.12;2.03;;;;;;;31.23;30.83;98882.94;4405502;32;20117;-71
2022/08/04 10:11:02;;;;;;;5.87;2.55;;;;;;;31.25;30.66;98889.72;4400005;32;20447;-71
2022/08/04 10:14:00;;;;;;;8.43;2.22;;;;;;;31.21;32.64;98894.06;4469817;32;20092;-71
2022/08/04 10:16:50;;;;;;;5.03;2.15;;;;;;;31.32;30.57;98881.31;4478025;32;20100;-71
2022/08/04 10:19:30;;;;;;;4.03;2.05;;;;;;;31.66;30.46;98884.31;4473103;32;20096;-71
2022/08/04 10:22:31;;;;;;;6.28;2.30;;;;;;;31.85;31.04;98886.44;4475501;32;20095;-72
2022/08/04 10:25:06;;;;;;;5.72;2.40;;;;;;;31.80;30.51;98872.91;4482494;32;20115;-71
2022/08/04 10:27:57;;;;;;;8.43;2.58;;;;;;;32.05;30.01;98876.62;4481031;31;20093;-73
2022/08/04 10:30:25;;;;;;;3.62;2.53;;;;;;;32.16;30.27;98880.97;4480521;32;20473;-73
2022/08/04 10:33:20;;;;;;;7.32;2.40;;;;;;;32.14;30.03;98878.53;4481522;32;20092;-72
2022/08/04 10:35:51;;;;;;;2.72;2.35;;;;;;;32.34;29.94;98880.34;4478732;32;20481;-72
2022/08/04 10:39:05;;;;;;;4.75;2.20;;;;;;;32.65;29.78;98865.81;4482539;32;20104;-73
2022/08/04 10:41:53;;;;;;;4.30;2.10;;;;;;;32.44;29.31;98870.53;4423026;32;20124;-73
2022/08/04 10:44:26;;;;;;;2.97;1.98;;;;;;;32.39;30.03;98868.66;4423199;32;20113;-71
2022/08/04 10:46:56;;;;;;;3.60;2.42;;;;;;;32.31;29.76;98859.22;4436625;32;20113;-73
2022/08/04 10:49:33;;;;;;;3.30;2.42;;;;;;;32.55;28.75;98858.53;4423981;32;20116;-71
2022/08/04 10:52:11;;;;;;;5.82;3.05;;;;;;;32.87;28.74;98865.41;4424209;32;20289;-72
2022/08/04 10:54:48;;;;;;;2.67;2.47;;;;;;;33.25;27.48;98858.37;4420697;32;20097;-72
2022/08/04 10:57:27;;;;;;;2.80;2.50;;;;;;;33.18;27.53;98859.78;4408874;32;20106;-71
2022/08/04 11:00:00;;;;;;;2.95;2.67;;;;;;;33.43;27.26;98854.16;4424487;32;20097;-72
2022/08/04 11:02:49;;;;;;;5.30;2.87;;;;;;;33.63;27.08;98857.75;4423072;32;20089;-73
2022/08/04 11:05:30;;;;;;;7.90;2.50;;;;;;;33.56;27.26;98854.56;4420543;32;20101;-73
2022/08/04 11:08:04;;;;;;;3.03;2.80;;;;;;;33.89;26.85;98854.81;4407188;32;20102;-72
2022/08/04 11:10:45;;;;;;;4.53;2.70;;;;;;;33.59;26.01;98856.72;4425165;32;20864;-73
2022/08/04 11:13:16;;;;;;;6.43;2.58;;;;;;;33.52;26.28;98854.34;4472643;32;20146;-73
2022/08/04 11:15:55;;;;;;;7.47;2.70;;;;;;;33.27;26.89;98844.53;4484001;31;20088;-74
2022/08/04 11:18:47;;;;;;;3.08;2.62;;;;;;;33.39;26.39;98846.84;4482690;32;20100;-74
2022/08/04 11:21:20;;;;;;;3.55;3.15;;;;;;;34.00;26.37;98855.50;4484139;31;20122;-73
2022/08/04 11:24:07;;;;;;;4.65;3.08;;;;;;;34.48;25.98;98850.00;4485302;31;20503;-73
2022/08/04 11:26:45;;;;;;;3.33;2.83;;;;;;;34.72;25.60;98852.66;4482349;32;20081;-74
2022/08/04 11:29:47;;;;;;;3.20;2.58;;;;;;;34.94;25.53;98845.81;4470438;32;20105;-73
2022/08/04 11:32:25;;;;;;;3.15;2.72;;;;;;;34.89;26.39;98856.81;4474303;32;20474;-72
2022/08/04 11:34:57;;;;;;;4.62;2.65;;;;;;;35.03;25.57;98845.97;4484404;32;20145;-73
2022/08/04 11:37:42;;;;;;;4.28;2.65;;;;;;;35.18;24.70;98843.78;4483723;32;20093;-72
2022/08/04 11:40:21;;;;;;;3.47;2.90;;;;;;;34.42;25.28;98829.44;4473326;32;20135;-73
2022/08/04 11:42:56;;;;;;;4.72;2.50;;;;;;;34.13;25.36;98838.47;4469815;32;20119;-73
2022/08/04 11:45:30;;;;;;;5.37;2.78;;;;;;;34.48;25.71;98841.84;4468046;32;20556;-73
2022/08/04 11:48:03;;;;;;;3.80;2.85;;;;;;;34.44;26.11;98832.66;4468260;32;20453;-72
2022/08/04 11:50:40;;;;;;;7.65;3.25;;;;;;;34.73;25.71;98829.75;4477613;32;20084;-73
2022/08/04 11:53:11;;;;;;;9.40;3.00;;;;;;;34.40;25.21;98829.72;4479597;32;20164;-73
2022/08/04 11:55:38;;;;;;;3.83;2.53;;;;;;;34.65;24.62;98816.84;4468579;32;20101;-73
2022/08/04 11:58:26;;;;;;;3.10;2.42;;;;;;;34.27;25.53;98825.78;4469416;32;20084;-73
2022/08/04 12:01:18;;;;;;;8.95;2.50;;;;;;;33.60;25.87;98807.53;4468257;32;20173;-73
2022/08/04 12:04:25;;;;;;;6.28;2.67;;;;;;;33.58;26.48;98814.34;4469752;32;20123;-73
2022/08/04 12:07:04;;;;;;;3.40;2.78;;;;;;;33.89;25.70;98803.97;4482944;32;20092;-73
2022/08/04 12:10:19;;;;;;;3.35;2.87;;;;;;;33.81;25.69;98806.50;4485123;31;20115;-72
2022/08/04 12:13:40;;;;;;;4.82;3.00;;;;;;;34.00;25.29;98807.34;4485357;31;20729;-72
2022/08/04 12:16:24;;;;;;;3.95;2.70;;;;;;;33.69;25.99;98794.13;4485259;31;20144;-73
2022/08/04 12:19:00;;;;;;;4.10;3.12;;;;;;;34.49;25.83;98789.03;4484220;32;20151;-73
2022/08/04 12:21:41;;;;;;;3.28;2.42;;;;;;;35.17;23.85;98786.88;4484054;32;20081;-73
2022/08/04 12:24:21;;;;;;;2.87;2.65;;;;;;;35.31;24.46;98790.47;4483889;32;20148;-74
2022/08/04 12:26:53;;;;;;;4.07;2.58;;;;;;;35.44;24.35;98786.16;4484083;32;20122;-75
2022/08/04 12:29:21;;;;;;;2.93;2.37;;;;;;;35.72;24.42;98797.06;4482256;31;20085;-73
2022/08/04 12:32:10;;;;;;;4.40;3.10;;;;;;;35.87;23.54;98796.00;4476744;31;20108;-73
2022/08/04 12:34:41;;;;;;;4.28;2.78;;;;;;;35.95;23.54;98789.00;4484335;31;20085;-74
2022/08/04 12:37:15;;;;;;;5.07;2.80;;;;;;;36.34;22.88;98793.06;4483207;32;20524;-74